This is the latest recevied weather packets stored in our database for station/object N9OJR. If no packets are shown the sender has not sent any weather packets the latest 10 day(s).
| Time | Temp. | Humidity | Pressure | Rain* | Wind** | Luminosity | Snow |
|---|---|---|---|---|---|---|---|
| 1777842547 | 15° C | 46% | 1009.6 hPa | 0 mm | - | 164 W/m² | - |
| 1777842245 | 15.56° C | 44% | 1009.5 hPa | 0 mm | - | 202 W/m² | - |
| 1777841939 | 15.56° C | 44% | 1009.7 hPa | 0 mm | - | 484 W/m² | - |
| 1777841636 | 15.56° C | 46% | 1009.8 hPa | 0 mm | - | 290 W/m² | - |
| 1777841333 | 15.56° C | 43% | 1009.5 hPa | 0 mm | - | 326 W/m² | - |
| 1777841030 | 15° C | 44% | 1009.6 hPa | 0 mm | - | 418 W/m² | - |
| 1777840727 | 15° C | 45% | 1009.6 hPa | 0 mm | - | 269 W/m² | - |
| 1777840424 | 15.56° C | 44% | 1009.7 hPa | 0 mm | - | 206 W/m² | - |
| 1777840121 | 15.56° C | 43% | 1009.8 hPa | 0 mm | - | 544 W/m² | - |
| 1777839819 | 16.11° C | 42% | 1009.8 hPa | 0 mm | - | 533 W/m² | - |
| 1777839518 | 16.67° C | 45% | 1010 hPa | 0 mm | - | 666 W/m² | - |
| 1777839214 | 15.56° C | 47% | 1009.7 hPa | 0 mm | - | 711 W/m² | - |
| 1777838912 | 15.56° C | 45% | 1010 hPa | 0 mm | - | 212 W/m² | - |
| 1777838607 | 15.56° C | 45% | 1009.8 hPa | 0 mm | - | 256 W/m² | - |
| 1777838305 | 15.56° C | 43% | 1010.2 hPa | 0 mm | - | 190 W/m² | - |
| 1777838001 | 15° C | 45% | 1010.1 hPa | 0 mm | - | 372 W/m² | - |
| 1777837699 | 15° C | 45% | 1010.3 hPa | 0 mm | - | 254 W/m² | - |
| 1777837394 | 15° C | 46% | 1010.5 hPa | 0 mm | - | 592 W/m² | - |
| 1777837091 | 15° C | 46% | 1010.7 hPa | 0 mm | - | 245 W/m² | - |
| 1777836787 | 16.11° C | 43% | 1010.2 hPa | 0 mm | - | 189 W/m² | - |
| 1777836483 | 15.56° C | 44% | 1010.7 hPa | 0 mm | - | 708 W/m² | - |
| 1777836178 | 15° C | 46% | 1011 hPa | 0 mm | - | 265 W/m² | - |
| 1777835875 | 15.56° C | 43% | 1010.9 hPa | 0 mm | - | 257 W/m² | - |
| 1777835572 | 15.56° C | 43% | 1010.8 hPa | 0 mm | - | 850 W/m² | - |
| 1777835269 | 15° C | 48% | 1011.1 hPa | 0 mm | - | 819 W/m² | - |
* Rain latest hour (hover to see other rain measurements)
** Current wind speed in m/s (hover to see current wind gust speed)